createdAt,value
2023-03-27T00:02:23.583Z,64.10
2023-03-27T00:04:50.577Z,67.40
2023-03-27T00:07:19.372Z,59.85
2023-03-27T00:09:46.073Z,51.97
2023-03-27T00:12:13.815Z,50.00
2023-03-27T00:14:45.200Z,50.37
2023-03-27T00:17:11.648Z,51.52
2023-03-27T00:19:38.437Z,52.70
2023-03-27T00:22:04.889Z,55.06
2023-03-27T00:24:32.229Z,55.41
2023-03-27T00:26:59.388Z,57.01
2023-03-27T00:29:27.100Z,57.57
2023-03-27T00:31:53.889Z,57.89
2023-03-27T00:34:20.903Z,58.86
2023-03-27T00:36:50.523Z,59.69
2023-03-27T00:39:18.546Z,59.72
2023-03-27T00:41:46.804Z,61.01
2023-03-27T00:44:33.770Z,66.73
2023-03-27T00:47:03.288Z,72.63
2023-03-27T00:49:36.900Z,66.14
2023-03-27T00:52:06.770Z,57.84
2023-03-27T00:54:42.374Z,47.36
2023-03-27T00:57:15.906Z,47.18
2023-03-27T00:59:46.172Z,50.14
2023-03-27T01:02:17.592Z,54.52
2023-03-27T01:04:46.161Z,54.27
2023-03-27T01:07:15.682Z,58.34
2023-03-27T01:09:42.732Z,59.28
2023-03-27T01:12:19.004Z,58.06
2023-03-27T01:15:20.730Z,58.65
2023-03-27T01:18:32.538Z,59.49
2023-03-27T01:21:17.063Z,60.62
2023-03-27T01:24:14.368Z,71.55
2023-03-27T01:27:05.949Z,66.21
2023-03-27T01:30:04.126Z,56.06
2023-03-27T01:32:59.267Z,56.83
2023-03-27T01:35:45.649Z,50.64
2023-03-27T01:38:57.495Z,46.57
2023-03-27T01:42:08.036Z,44.21
2023-03-27T01:44:51.478Z,42.11
2023-03-27T01:47:41.106Z,36.65
2023-03-27T01:50:16.393Z,37.02
2023-03-27T01:52:55.055Z,40.33
2023-03-27T01:55:29.639Z,41.80
2023-03-27T01:58:47.402Z,43.66
2023-03-27T02:01:26.649Z,44.93
2023-03-27T02:04:02.114Z,49.19
2023-03-27T02:06:41.277Z,51.70
2023-03-27T02:09:24.085Z,51.30
2023-03-27T02:12:08.409Z,53.65
2023-03-27T02:15:22.585Z,57.55
2023-03-27T02:18:05.786Z,57.97
2023-03-27T02:20:35.140Z,62.74
2023-03-27T02:23:02.158Z,71.14
2023-03-27T02:25:31.051Z,64.32
2023-03-27T02:28:22.334Z,55.20
2023-03-27T02:31:32.838Z,49.70
2023-03-27T02:34:14.346Z,48.92
2023-03-27T02:37:18.563Z,44.78
2023-03-27T02:40:05.995Z,41.67
2023-03-27T02:43:01.155Z,41.78
2023-03-27T02:46:04.826Z,37.80
2023-03-27T02:48:46.076Z,34.78
2023-03-27T02:51:29.360Z,35.44
2023-03-27T02:54:08.702Z,39.74
2023-03-27T02:56:47.103Z,40.67
2023-03-27T02:59:26.569Z,42.89
2023-03-27T03:01:54.520Z,45.66
2023-03-27T03:04:41.386Z,47.43
2023-03-27T03:07:10.927Z,48.28
2023-03-27T03:09:40.593Z,48.84
2023-03-27T03:12:08.628Z,51.19
2023-03-27T03:14:40.474Z,52.57
2023-03-27T03:17:06.871Z,64.67
2023-03-27T03:19:33.255Z,65.15
2023-03-27T03:22:01.037Z,57.42
2023-03-27T03:24:29.070Z,53.34
2023-03-27T03:26:56.837Z,48.30
2023-03-27T03:29:37.591Z,47.41
2023-03-27T03:32:06.659Z,45.99
2023-03-27T03:34:36.079Z,43.99
2023-03-27T03:37:02.701Z,42.98
2023-03-27T03:39:29.137Z,42.73
2023-03-27T03:41:55.951Z,42.41
2023-03-27T03:44:23.517Z,41.36
2023-03-27T03:46:50.121Z,40.88
2023-03-27T03:49:16.856Z,41.13
2023-03-27T03:51:43.257Z,39.90
2023-03-27T03:54:09.720Z,38.10
2023-03-27T03:56:40.745Z,37.79
2023-03-27T03:59:11.142Z,37.44
2023-03-27T04:01:37.717Z,34.92
2023-03-27T04:04:05.163Z,33.77
2023-03-27T04:06:31.964Z,35.00
2023-03-27T04:08:59.327Z,36.98
2023-03-27T04:11:25.679Z,40.58
2023-03-27T04:13:53.157Z,42.28
2023-03-27T04:16:20.628Z,45.45
2023-03-27T04:18:49.840Z,48.93
2023-03-27T04:21:17.061Z,51.40
2023-03-27T04:23:48.885Z,54.68
2023-03-27T04:26:17.803Z,55.51
2023-03-27T04:28:46.451Z,61.26
2023-03-27T04:31:13.808Z,60.27
2023-03-27T04:33:45.762Z,53.31
2023-03-27T04:36:17.661Z,50.60
2023-03-27T04:38:44.947Z,46.59
2023-03-27T04:41:11.653Z,45.63
2023-03-27T04:43:41.105Z,45.03
2023-03-27T04:46:08.728Z,44.46
2023-03-27T04:48:39.326Z,42.99
2023-03-27T04:51:08.782Z,41.37
2023-03-27T04:53:37.033Z,39.28
2023-03-27T04:56:06.225Z,39.47
2023-03-27T04:58:34.565Z,38.01
2023-03-27T05:01:05.005Z,37.03
2023-03-27T05:03:31.937Z,37.04
2023-03-27T05:05:58.782Z,36.89
2023-03-27T05:08:26.738Z,37.72
2023-03-27T05:10:53.181Z,37.04
2023-03-27T05:13:19.737Z,36.92
2023-03-27T05:15:46.475Z,37.12
2023-03-27T05:18:13.900Z,36.71
2023-03-27T05:20:40.309Z,35.84
2023-03-27T05:23:10.291Z,32.68
2023-03-27T05:25:39.597Z,32.10
2023-03-27T05:28:06.855Z,32.35
2023-03-27T05:30:34.863Z,38.20
2023-03-27T05:33:01.614Z,39.82
2023-03-27T05:35:28.091Z,44.85
2023-03-27T05:37:59.695Z,44.66
2023-03-27T05:40:30.349Z,46.12
2023-03-27T05:42:57.759Z,44.55
2023-03-27T05:45:26.763Z,46.50
2023-03-27T05:48:00.762Z,47.21
2023-03-27T05:50:35.607Z,58.37
2023-03-27T05:53:10.018Z,62.47
2023-03-27T05:55:39.929Z,55.57
2023-03-27T05:58:09.235Z,49.04
2023-03-27T06:00:37.777Z,45.33
2023-03-27T06:03:05.120Z,42.99
2023-03-27T06:05:31.952Z,41.67
2023-03-27T06:07:58.891Z,40.45
2023-03-27T06:10:30.525Z,39.57
2023-03-27T06:13:01.143Z,38.99
2023-03-27T06:15:28.538Z,38.50
2023-03-27T06:17:55.417Z,37.94
2023-03-27T06:20:26.862Z,37.72
2023-03-27T06:22:59.232Z,37.48
2023-03-27T06:25:31.535Z,36.96
2023-03-27T06:27:58.890Z,35.66
2023-03-27T06:30:27.574Z,32.94
2023-03-27T06:32:57.825Z,35.52
2023-03-27T06:35:27.895Z,36.34
2023-03-27T06:37:58.511Z,38.76
2023-03-27T06:40:35.607Z,43.85
2023-03-27T06:43:07.680Z,46.13
2023-03-27T06:45:50.367Z,50.46
2023-03-27T06:48:22.059Z,53.12
2023-03-27T06:50:52.280Z,53.63
2023-03-27T06:55:52.855Z,53.27
2023-03-27T06:58:19.656Z,54.86
2023-03-27T07:00:48.581Z,54.18
2023-03-27T07:03:17.328Z,57.80
2023-03-27T07:05:44.525Z,56.37
2023-03-27T07:10:59.706Z,52.97
2023-03-27T07:13:34.528Z,55.23
2023-03-27T07:16:01.857Z,55.04
2023-03-27T07:18:28.715Z,56.56
2023-03-27T07:20:55.317Z,58.47
2023-03-27T07:23:22.382Z,59.71
2023-03-27T07:25:54.540Z,58.85
2023-03-27T07:28:23.023Z,56.53
2023-03-27T07:30:49.490Z,55.24
2023-03-27T07:33:15.950Z,54.69
2023-03-27T07:35:47.623Z,54.23
2023-03-27T07:38:16.219Z,54.63
2023-03-27T07:40:45.596Z,56.80
2023-03-27T07:43:12.690Z,59.58
2023-03-27T07:45:39.723Z,60.57
2023-03-27T07:48:10.175Z,60.15
2023-03-27T07:50:37.337Z,59.17
2023-03-27T07:53:08.603Z,59.93
2023-03-27T07:55:37.862Z,60.00
2023-03-27T07:58:06.091Z,60.64
2023-03-27T08:00:38.179Z,60.46
2023-03-27T08:03:13.356Z,60.85
2023-03-27T08:05:41.011Z,59.53
2023-03-27T08:08:09.366Z,59.30
2023-03-27T08:10:39.248Z,58.18
2023-03-27T08:13:06.925Z,58.16
2023-03-27T08:15:33.347Z,60.23
2023-03-27T08:18:00.831Z,60.14
2023-03-27T08:20:29.622Z,59.80
2023-03-27T08:22:56.108Z,59.26
2023-03-27T08:25:22.904Z,58.80
2023-03-27T08:27:51.599Z,58.83
2023-03-27T08:30:23.913Z,59.53
2023-03-27T08:32:51.104Z,58.03
2023-03-27T08:35:18.134Z,59.05
2023-03-27T08:37:45.516Z,58.77
2023-03-27T08:40:27.548Z,58.21
2023-03-27T08:43:04.139Z,56.56
2023-03-27T08:45:45.748Z,57.26
2023-03-27T08:48:24.934Z,57.42
2023-03-27T08:50:57.815Z,57.75
2023-03-27T08:53:48.123Z,57.39
2023-03-27T08:56:20.191Z,57.30
2023-03-27T08:58:49.816Z,57.36
2023-03-27T09:01:53.932Z,57.63
2023-03-27T09:04:47.764Z,57.37
2023-03-27T09:07:47.945Z,57.62
2023-03-27T09:10:55.726Z,56.83
2023-03-27T09:13:37.443Z,55.67
2023-03-27T09:16:20.901Z,57.16
2023-03-27T09:19:03.260Z,55.77
2023-03-27T09:21:48.507Z,56.29
2023-03-27T09:24:40.421Z,56.21
2023-03-27T09:27:26.904Z,56.45
2023-03-27T09:30:20.338Z,56.24
2023-03-27T09:32:50.874Z,55.56
2023-03-27T09:35:20.797Z,56.40
2023-03-27T09:37:56.025Z,56.14
2023-03-27T09:40:40.828Z,55.95
2023-03-27T09:43:16.818Z,55.22
2023-03-27T09:45:45.147Z,54.25
2023-03-27T09:48:27.742Z,53.64
2023-03-27T09:50:54.480Z,52.37
2023-03-27T09:53:25.326Z,53.77
2023-03-27T09:56:02.442Z,54.40
2023-03-27T09:58:39.148Z,55.08
2023-03-27T10:01:28.443Z,55.18
2023-03-27T10:03:59.436Z,54.18
2023-03-27T10:06:30.629Z,54.60
2023-03-27T10:09:06.836Z,53.36
2023-03-27T10:11:35.624Z,53.40
2023-03-27T10:14:16.104Z,54.03
2023-03-27T10:16:45.709Z,52.92
2023-03-27T10:19:28.850Z,51.53
2023-03-27T10:22:01.821Z,51.61
2023-03-27T10:24:44.189Z,52.16
2023-03-27T10:27:26.184Z,51.15
2023-03-27T10:29:56.904Z,50.98
2023-03-27T10:32:46.991Z,50.84
2023-03-27T10:35:30.262Z,51.35
2023-03-27T10:38:04.038Z,50.36
2023-03-27T10:40:36.293Z,50.31
2023-03-27T10:43:32.901Z,50.05
2023-03-27T10:46:05.503Z,49.31
2023-03-27T10:49:12.855Z,47.92
2023-03-27T10:52:10.786Z,46.85
2023-03-27T10:55:00.735Z,45.97
2023-03-27T10:57:36.024Z,44.52
2023-03-27T11:00:34.687Z,44.66
2023-03-27T11:03:25.964Z,44.95
2023-03-27T11:05:56.919Z,44.48
2023-03-27T11:08:38.378Z,44.84
2023-03-27T11:11:27.147Z,44.97
2023-03-27T11:14:02.718Z,45.12
2023-03-27T11:16:48.150Z,43.50
2023-03-27T11:19:33.066Z,44.64
2023-03-27T11:22:31.791Z,44.42
2023-03-27T11:25:42.946Z,43.42
2023-03-27T11:28:32.440Z,43.31
2023-03-27T11:31:25.218Z,43.92
2023-03-27T11:34:05.374Z,43.66
2023-03-27T11:36:56.733Z,43.77
2023-03-27T11:39:47.900Z,42.55
2023-03-27T11:42:22.248Z,43.10
2023-03-27T11:44:52.819Z,42.90
2023-03-27T11:47:51.683Z,42.72
2023-03-27T11:50:42.767Z,42.47
2023-03-27T11:53:37.591Z,41.74
2023-03-27T11:56:31.718Z,42.36
2023-03-27T11:59:27.702Z,42.35
2023-03-27T12:02:45.098Z,41.93
2023-03-27T12:05:45.141Z,42.51
2023-03-27T12:08:46.305Z,42.50
2023-03-27T12:11:15.856Z,42.18
2023-03-27T12:14:13.954Z,41.18
2023-03-27T12:16:53.973Z,38.78
2023-03-27T12:20:08.911Z,39.41
2023-03-27T12:23:38.038Z,39.42
2023-03-27T12:26:28.120Z,40.63
2023-03-27T12:29:03.146Z,36.91
2023-03-27T12:32:15.128Z,36.38
2023-03-27T12:35:05.678Z,37.24
2023-03-27T12:37:47.519Z,37.39
2023-03-27T12:40:40.490Z,37.24
2023-03-27T12:43:29.268Z,36.19
2023-03-27T12:46:40.494Z,35.47
2023-03-27T12:49:11.511Z,35.73
2023-03-27T12:52:06.705Z,35.94
2023-03-27T12:54:37.943Z,35.47
2023-03-27T12:57:07.496Z,35.40
2023-03-27T12:59:51.306Z,34.64
2023-03-27T13:02:35.745Z,35.12
2023-03-27T13:05:39.266Z,35.50
2023-03-27T13:08:25.642Z,36.17
2023-03-27T13:11:36.683Z,35.79
2023-03-27T13:14:53.941Z,35.27
2023-03-27T13:17:47.304Z,36.43
2023-03-27T13:21:02.822Z,35.79
2023-03-27T13:23:54.444Z,34.43
2023-03-27T13:27:23.136Z,34.73
2023-03-27T13:29:52.222Z,35.22
2023-03-27T13:32:41.240Z,33.77
2023-03-27T13:35:18.996Z,33.63
2023-03-27T13:37:48.194Z,34.91
2023-03-27T13:40:28.781Z,35.05
2023-03-27T13:43:10.925Z,35.27
2023-03-27T13:45:49.317Z,34.34
2023-03-27T13:48:59.854Z,34.18
2023-03-27T13:52:05.450Z,33.55
2023-03-27T13:55:10.312Z,34.77
2023-03-27T13:58:32.079Z,35.19
2023-03-27T14:01:16.684Z,35.22
2023-03-27T14:04:37.830Z,35.91
2023-03-27T14:07:19.094Z,35.49
2023-03-27T14:10:13.568Z,35.66
2023-03-27T14:13:01.125Z,36.34
2023-03-27T14:16:06.395Z,36.80
2023-03-27T14:19:12.182Z,36.14
2023-03-27T14:21:59.490Z,36.36
2023-03-27T14:24:59.063Z,36.38
2023-03-27T14:27:27.275Z,35.22
2023-03-27T14:30:25.871Z,34.88
2023-03-27T14:32:55.767Z,34.49
2023-03-27T14:35:43.610Z,34.30
2023-03-27T14:38:40.995Z,34.70
2023-03-27T14:41:20.506Z,35.46
2023-03-27T14:43:51.881Z,36.08
2023-03-27T14:46:23.818Z,36.42
2023-03-27T14:48:57.789Z,36.12
2023-03-27T14:51:36.414Z,35.93
2023-03-27T14:54:13.548Z,36.52
2023-03-27T14:56:46.963Z,36.19
2023-03-27T14:59:23.854Z,36.02
2023-03-27T15:01:59.832Z,35.66
2023-03-27T15:04:31.893Z,36.33
2023-03-27T15:07:29.289Z,35.68
2023-03-27T15:10:27.273Z,35.32
2023-03-27T15:12:55.316Z,35.87
2023-03-27T15:15:26.615Z,36.23
2023-03-27T15:17:59.833Z,36.57
2023-03-27T15:20:31.163Z,36.30
2023-03-27T15:23:15.495Z,35.66
2023-03-27T15:26:11.491Z,35.41
2023-03-27T15:28:50.478Z,35.13
2023-03-27T15:31:19.496Z,34.62
2023-03-27T15:34:03.161Z,34.69
2023-03-27T15:36:34.593Z,35.42
2023-03-27T15:39:06.147Z,35.63
2023-03-27T15:41:41.101Z,35.04
2023-03-27T15:44:15.257Z,34.85
2023-03-27T15:46:56.809Z,34.68
2023-03-27T15:49:41.297Z,34.75
2023-03-27T15:52:31.599Z,35.02
2023-03-27T15:55:00.154Z,35.45
2023-03-27T15:57:30.830Z,35.33
2023-03-27T16:00:13.948Z,34.64
2023-03-27T16:02:41.868Z,34.93
2023-03-27T16:05:18.095Z,35.40
2023-03-27T16:07:49.408Z,34.87
2023-03-27T16:10:32.583Z,35.28
2023-03-27T16:13:03.306Z,35.20
2023-03-27T16:15:59.321Z,35.16
2023-03-27T16:18:34.674Z,35.19
2023-03-27T16:21:12.606Z,34.32
2023-03-27T16:23:40.048Z,36.16
2023-03-27T16:26:15.584Z,36.20
2023-03-27T16:28:42.933Z,35.73
2023-03-27T16:31:19.794Z,35.17
2023-03-27T16:33:46.699Z,35.32
2023-03-27T16:36:19.200Z,34.80
2023-03-27T16:38:46.735Z,34.85
2023-03-27T16:41:16.745Z,34.53
2023-03-27T16:43:44.814Z,34.98
2023-03-27T16:46:25.557Z,35.36
2023-03-27T16:48:53.974Z,35.75
2023-03-27T16:51:27.527Z,36.08
2023-03-27T16:53:58.276Z,35.83
2023-03-27T16:56:25.061Z,34.56
2023-03-27T16:58:52.930Z,34.88
2023-03-27T17:01:24.429Z,35.17
2023-03-27T17:03:50.854Z,34.75
2023-03-27T17:06:21.297Z,34.68
2023-03-27T17:08:54.506Z,35.04
2023-03-27T17:11:23.080Z,35.26
2023-03-27T17:13:50.294Z,35.40
2023-03-27T17:16:18.931Z,34.37
2023-03-27T17:18:45.487Z,34.83
2023-03-27T17:21:11.999Z,35.83
2023-03-27T17:23:41.652Z,36.21
2023-03-27T17:26:14.086Z,36.83
2023-03-27T17:28:43.141Z,36.85
2023-03-27T17:31:09.879Z,37.09
2023-03-27T17:33:36.442Z,36.77
2023-03-27T17:36:14.653Z,36.66
2023-03-27T17:38:42.865Z,36.68
2023-03-27T17:41:16.578Z,37.79
2023-03-27T17:43:48.020Z,37.60
2023-03-27T17:46:15.983Z,36.98
2023-03-27T17:48:43.584Z,37.52
2023-03-27T17:51:10.388Z,37.32
2023-03-27T17:53:40.043Z,37.10
2023-03-27T17:56:11.186Z,37.31
2023-03-27T17:58:37.959Z,37.34
2023-03-27T18:01:16.154Z,36.52
2023-03-27T18:03:43.804Z,37.06
2023-03-27T18:06:10.938Z,36.21
2023-03-27T18:08:37.738Z,37.26
2023-03-27T18:11:10.995Z,36.62
2023-03-27T18:13:44.677Z,35.77
2023-03-27T18:16:12.284Z,35.48
2023-03-27T18:18:40.967Z,36.36
2023-03-27T18:21:10.320Z,36.14
2023-03-27T18:23:45.943Z,36.52
2023-03-27T18:26:14.923Z,36.12
2023-03-27T18:28:42.926Z,35.96
2023-03-27T18:31:11.926Z,37.81
2023-03-27T18:33:38.474Z,37.61
2023-03-27T18:36:11.455Z,36.53
2023-03-27T18:38:40.475Z,37.00
2023-03-27T18:41:08.912Z,38.43
2023-03-27T18:43:35.953Z,38.13
2023-03-27T18:46:07.678Z,37.78
2023-03-27T18:48:37.147Z,37.35
2023-03-27T18:51:05.609Z,37.10
2023-03-27T18:53:34.965Z,38.53
2023-03-27T18:56:03.746Z,38.18
2023-03-27T18:58:31.632Z,37.70
2023-03-27T19:01:00.245Z,37.32
2023-03-27T19:03:34.172Z,37.04
2023-03-27T19:06:18.690Z,37.23
2023-03-27T19:08:46.848Z,36.78
2023-03-27T19:11:13.740Z,37.62
2023-03-27T19:13:41.753Z,37.49
2023-03-27T19:16:15.044Z,38.04
2023-03-27T19:18:43.510Z,37.29
2023-03-27T19:21:13.222Z,38.26
2023-03-27T19:23:40.218Z,38.12
2023-03-27T19:26:11.794Z,37.81
2023-03-27T19:28:39.927Z,36.79
2023-03-27T19:31:11.113Z,37.37
2023-03-27T19:33:40.059Z,38.54
2023-03-27T19:36:09.484Z,39.01
2023-03-27T19:38:37.967Z,39.26
2023-03-27T19:41:08.902Z,40.83
2023-03-27T19:43:38.367Z,40.94
2023-03-27T19:46:15.585Z,41.44
2023-03-27T19:48:51.024Z,41.66
2023-03-27T19:51:22.077Z,40.68
2023-03-27T19:53:48.954Z,41.08
2023-03-27T19:56:16.352Z,40.98
2023-03-27T19:58:42.869Z,40.97
2023-03-27T20:01:10.749Z,40.66
2023-03-27T20:03:45.111Z,40.81
2023-03-27T20:06:18.602Z,41.18
2023-03-27T20:08:45.736Z,40.58
2023-03-27T20:11:14.709Z,40.79
2023-03-27T20:13:52.916Z,40.88
2023-03-27T20:16:26.949Z,40.02
2023-03-27T20:19:06.562Z,40.81
2023-03-27T20:21:45.516Z,41.14
2023-03-27T20:24:16.894Z,42.39
2023-03-27T20:26:49.311Z,41.05
2023-03-27T20:29:23.663Z,42.12
2023-03-27T20:31:50.536Z,43.77
2023-03-27T20:34:18.809Z,44.24
2023-03-27T20:36:54.295Z,43.02
2023-03-27T20:39:20.705Z,43.72
2023-03-27T20:41:50.970Z,43.84
2023-03-27T20:44:19.355Z,44.16
2023-03-27T20:46:52.036Z,43.95
2023-03-27T20:49:33.534Z,42.58
2023-03-27T20:52:06.033Z,38.92
2023-03-27T20:54:35.459Z,40.03
2023-03-27T20:57:02.239Z,39.52
2023-03-27T20:59:31.415Z,39.69
2023-03-27T21:01:59.340Z,38.71
2023-03-27T21:04:28.568Z,38.85
2023-03-27T21:06:55.378Z,38.52
2023-03-27T21:09:26.990Z,38.30
2023-03-27T21:11:56.295Z,38.81
2023-03-27T21:14:23.482Z,38.36
2023-03-27T21:16:51.097Z,37.41
2023-03-27T21:19:18.283Z,37.59
2023-03-27T21:21:45.520Z,37.51
2023-03-27T21:24:12.823Z,39.19
2023-03-27T21:26:41.018Z,39.79
2023-03-27T21:29:10.103Z,39.55
2023-03-27T21:31:41.591Z,39.90
2023-03-27T21:34:09.058Z,39.69
2023-03-27T21:36:39.548Z,39.73
2023-03-27T21:39:06.077Z,39.80
2023-03-27T21:41:32.992Z,40.45
2023-03-27T21:44:02.822Z,40.75
2023-03-27T21:46:32.420Z,39.08
2023-03-27T21:48:59.189Z,38.98
2023-03-27T21:51:26.333Z,38.70
2023-03-27T21:53:56.352Z,38.17
2023-03-27T21:56:22.778Z,38.03
2023-03-27T21:58:49.788Z,38.80
2023-03-27T22:01:20.442Z,39.35
2023-03-27T22:03:47.351Z,39.66
2023-03-27T22:06:17.010Z,40.14
2023-03-27T22:08:43.963Z,40.33
2023-03-27T22:11:12.073Z,40.54
2023-03-27T22:13:42.565Z,40.83
2023-03-27T22:16:18.606Z,40.86
2023-03-27T22:18:47.713Z,41.08
2023-03-27T22:21:22.220Z,41.27
2023-03-27T22:23:50.930Z,41.25
2023-03-27T22:26:22.407Z,41.26
2023-03-27T22:28:51.802Z,41.39
2023-03-27T22:31:19.809Z,41.61
2023-03-27T22:33:49.627Z,41.50
2023-03-27T22:36:18.440Z,41.63
2023-03-27T22:38:45.894Z,41.59
2023-03-27T22:41:15.404Z,42.29
2023-03-27T22:43:42.249Z,42.75
2023-03-27T22:46:15.773Z,42.56
2023-03-27T22:48:42.866Z,42.61
2023-03-27T22:51:11.983Z,42.56
2023-03-27T22:53:40.353Z,42.81
2023-03-27T22:56:07.963Z,42.13
2023-03-27T22:58:34.580Z,42.61
2023-03-27T23:01:04.708Z,42.72
2023-03-27T23:03:33.031Z,42.76
2023-03-27T23:06:00.041Z,42.86
2023-03-27T23:08:28.262Z,42.84
2023-03-27T23:10:59.656Z,42.81
2023-03-27T23:13:30.057Z,43.36
2023-03-27T23:15:58.180Z,43.13
2023-03-27T23:18:28.183Z,43.26
2023-03-27T23:20:58.999Z,43.66
2023-03-27T23:23:30.034Z,44.23
2023-03-27T23:25:59.320Z,44.34
2023-03-27T23:28:31.938Z,44.63
2023-03-27T23:31:29.450Z,44.75
2023-03-27T23:33:59.153Z,45.12
2023-03-27T23:36:25.747Z,45.55
2023-03-27T23:38:53.097Z,45.83
2023-03-27T23:41:20.720Z,45.96
2023-03-27T23:43:49.479Z,45.79
2023-03-27T23:46:17.948Z,46.00
2023-03-27T23:48:45.326Z,45.84
2023-03-27T23:51:15.637Z,45.80
2023-03-27T23:53:43.904Z,45.99
2023-03-27T23:56:10.790Z,45.64
2023-03-27T23:58:38.321Z,45.83
